Time;durP1;ratioP1;P1;durP2;ratioP2;P2;SDS_P1;SDS_P2;PMS_P1;PMS_P2;Temp;Humidity;BMP_temperature;BMP_pressure;BME280_temperature;BME280_humidity;BME280_pressure;Samples;Min_cycle;Max_cycle;Signal;HPM_P1;HPM_P2
2021/09/29 00:03:45;;;;;;;24.52;15.00;;;;;;;8.31;92.87;99655.67;4076695;86;21062;-82
2021/09/29 00:09:48;;;;;;;19.87;14.70;;;;;;;8.34;93.26;99661.00;4085709;85;21081;-81
2021/09/29 00:15:52;;;;;;;22.45;14.50;;;;;;;8.34;93.26;99656.34;4088048;86;21601;-82
2021/09/29 00:21:54;;;;;;;18.45;14.23;;;;;;;8.33;93.47;99661.56;4090496;86;21411;-81
2021/09/29 00:27:55;;;;;;;19.10;13.53;;;;;;;8.32;93.45;99655.08;4087048;86;21045;-81
2021/09/29 00:34:08;;;;;;;21.73;14.73;;;;;;;8.26;93.35;99653.73;4084849;86;21161;-82
2021/09/29 00:40:05;;;;;;;;;;;;;;;8.18;93.49;99649.97;4088528;86;21084;-81
2021/09/29 00:46:07;;;;;;;23.52;15.18;;;;;;;8.12;93.96;99645.89;4130941;84;20157;-82
2021/09/29 00:52:08;;;;;;;21.52;14.38;;;;;;;8.08;93.54;99647.70;4165787;84;21125;-81
2021/09/29 00:58:09;;;;;;;20.92;14.45;;;;;;;8.02;93.40;99647.71;4151633;84;21533;-81
2021/09/29 01:04:12;;;;;;;21.42;14.30;;;;;;;7.88;93.44;99641.25;4147399;85;21596;-81
2021/09/29 01:10:43;;;;;;;22.87;14.78;;;;;;;7.82;93.78;99640.45;4142959;84;22214;-81
2021/09/29 01:16:48;;;;;;;22.70;14.75;;;;;;;7.78;93.78;99639.56;4155507;85;21129;-81
2021/09/29 01:23:31;;;;;;;17.12;13.15;;;;;;;7.70;93.78;99637.73;4156177;84;21050;-81
2021/09/29 01:29:34;;;;;;;18.75;13.38;;;;;;;7.64;93.72;99626.84;4138636;85;21011;-81
2021/09/29 01:35:36;;;;;;;22.20;13.20;;;;;;;7.51;93.69;99623.87;4143184;84;21554;-81
2021/09/29 01:41:40;;;;;;;18.67;12.37;;;;;;;7.42;93.89;99619.09;4150606;85;21045;-81
2021/09/29 01:47:42;;;;;;;16.37;12.28;;;;;;;7.35;94.05;99603.31;4158571;84;21612;-81
2021/09/29 01:53:46;;;;;;;18.77;12.78;;;;;;;7.33;94.21;99590.59;4156473;83;21061;-81
2021/09/29 01:59:48;;;;;;;19.12;11.85;;;;;;;7.31;94.31;99590.71;4150899;85;21674;-81
2021/09/29 02:05:51;;;;;;;18.90;12.47;;;;;;;7.26;94.32;99581.39;4139568;84;21086;-81
2021/09/29 02:11:55;;;;;;;19.62;12.60;;;;;;;7.22;94.45;99576.41;4148025;84;21046;-82
2021/09/29 02:17:57;;;;;;;19.48;12.58;;;;;;;7.17;94.47;99573.90;4161433;84;21097;-81
2021/09/29 02:23:58;;;;;;;19.75;12.63;;;;;;;7.14;94.76;99567.19;4151450;84;21126;-81
2021/09/29 02:29:59;;;;;;;18.00;10.05;;;;;;;7.10;94.65;99568.20;4161103;84;21092;-82
2021/09/29 02:36:00;;;;;;;20.72;12.03;;;;;;;7.07;95.95;99566.96;4145806;85;21153;-81
2021/09/29 02:42:04;;;;;;;22.25;12.85;;;;;;;6.94;94.89;99568.06;4149649;84;21068;-81
2021/09/29 02:48:06;;;;;;;19.90;13.15;;;;;;;6.93;94.98;99574.64;4146500;83;21069;-81
2021/09/29 02:54:10;;;;;;;20.97;12.85;;;;;;;6.98;95.21;99571.72;4136995;85;21591;-81
2021/09/29 03:00:12;;;;;;;19.12;12.35;;;;;;;6.97;95.08;99564.66;4147957;85;21106;-81
2021/09/29 03:06:14;;;;;;;18.15;13.00;;;;;;;6.97;95.01;99573.41;4143767;85;21503;-81
2021/09/29 03:12:15;;;;;;;19.65;13.10;;;;;;;6.91;95.00;99578.27;4128526;83;21071;-81
2021/09/29 03:18:17;;;;;;;20.45;13.40;;;;;;;6.85;94.99;99571.45;4128997;83;21153;-80
2021/09/29 03:24:20;;;;;;;19.73;13.43;;;;;;;6.83;95.41;99567.48;4134798;85;21655;-81
2021/09/29 03:30:21;;;;;;;27.10;16.40;;;;;;;6.76;95.33;99567.22;4040490;86;21089;-81
2021/09/29 03:36:23;;;;;;;29.87;18.95;;;;;;;6.74;95.31;99564.84;4024028;86;21112;-81
2021/09/29 03:42:25;;;;;;;35.85;19.98;;;;;;;6.80;95.37;99562.12;4025276;86;21077;-81
2021/09/29 03:48:27;;;;;;;35.60;21.65;;;;;;;6.81;95.69;99557.49;3945086;87;21108;-82
2021/09/29 03:54:28;;;;;;;31.62;21.02;;;;;;;6.82;95.75;99545.47;4008446;87;21077;-81
2021/09/29 04:00:30;;;;;;;37.65;20.60;;;;;;;6.76;95.65;99529.13;4065236;86;21598;-81
2021/09/29 04:06:31;;;;;;;33.95;21.05;;;;;;;6.82;95.96;99531.86;4064390;86;21563;-81
2021/09/29 04:12:32;;;;;;;33.63;21.60;;;;;;;6.87;96.16;99534.38;4051986;87;21134;-81
2021/09/29 04:18:34;;;;;;;44.05;24.92;;;;;;;6.83;96.19;99532.88;4050856;86;21571;-80
2021/09/29 04:24:36;;;;;;;37.65;24.18;;;;;;;6.86;95.82;99530.84;4045685;87;21402;-82
2021/09/29 04:30:37;;;;;;;35.85;25.35;;;;;;;6.83;96.24;99512.47;4033069;86;21131;-81
2021/09/29 04:36:39;;;;;;;38.80;25.62;;;;;;;6.82;96.02;99519.61;4045027;86;21569;-81
2021/09/29 04:42:43;;;;;;;40.05;25.62;;;;;;;6.78;96.18;99512.69;4063424;86;21069;-82
2021/09/29 04:48:44;;;;;;;40.08;24.95;;;;;;;6.75;96.19;99517.44;4051153;86;21095;-81
2021/09/29 04:54:46;;;;;;;43.05;25.25;;;;;;;6.76;96.46;99518.24;4046650;86;21079;-81
2021/09/29 05:00:48;;;;;;;36.70;24.15;;;;;;;6.81;96.58;99520.20;4041862;87;21479;-81
2021/09/29 05:06:53;;;;;;;40.12;25.88;;;;;;;6.82;96.48;99519.61;4047212;86;21583;-81
2021/09/29 05:12:59;;;;;;;38.75;23.67;;;;;;;6.85;96.57;99517.58;4043048;87;21158;-81
2021/09/29 05:19:01;;;;;;;40.30;23.65;;;;;;;6.87;96.79;99507.16;4063357;86;21047;-80
2021/09/29 05:25:04;;;;;;;40.90;22.67;;;;;;;6.89;96.97;99512.48;4062323;86;21129;-81
2021/09/29 05:31:05;;;;;;;46.20;23.85;;;;;;;6.91;96.97;99506.69;4062325;86;21062;-81
2021/09/29 05:37:07;;;;;;;33.58;21.77;;;;;;;6.95;96.91;99507.63;4044239;86;21114;-81
2021/09/29 05:43:09;;;;;;;27.22;18.67;;;;;;;6.97;96.76;99506.73;4067745;87;21126;-81
2021/09/29 05:49:10;;;;;;;29.57;19.52;;;;;;;6.93;96.68;99507.97;4034907;86;21132;-82
2021/09/29 05:55:13;;;;;;;28.42;19.20;;;;;;;6.97;96.91;99512.17;4038832;87;21034;-81
2021/09/29 06:01:14;;;;;;;29.07;18.95;;;;;;;7.01;97.06;99518.52;4032264;86;21106;-82
2021/09/29 06:07:17;;;;;;;25.05;17.75;;;;;;;7.09;97.12;99510.81;4028224;87;21074;-81
2021/09/29 06:13:19;;;;;;;28.02;18.15;;;;;;;7.17;97.29;99509.91;4028561;87;21098;-81
2021/09/29 06:19:20;;;;;;;30.45;18.57;;;;;;;7.30;97.29;99512.84;4027302;87;21054;-82
2021/09/29 06:25:26;;;;;;;24.32;18.75;;;;;;;7.38;97.38;99513.30;4040585;86;21099;-82
2021/09/29 06:31:27;;;;;;;29.50;19.55;;;;;;;7.47;97.24;99522.17;4040967;87;21709;-82
2021/09/29 06:37:28;;;;;;;32.93;20.88;;;;;;;7.47;97.13;99524.31;4037995;86;21081;-82
2021/09/29 06:43:31;;;;;;;36.70;21.57;;;;;;;7.52;97.20;99524.09;4040138;86;21083;-81
2021/09/29 06:49:32;;;;;;;37.88;21.42;;;;;;;7.61;97.45;99513.85;4051431;85;21091;-81
2021/09/29 06:55:34;;;;;;;42.58;25.48;;;;;;;7.73;97.63;99527.48;4030878;87;21658;-81
2021/09/29 07:01:35;;;;;;;34.48;24.27;;;;;;;7.79;97.36;99523.38;4030460;87;21599;-82
2021/09/29 07:07:37;;;;;;;40.05;24.75;;;;;;;7.80;97.28;99530.97;4037767;87;21089;-82
2021/09/29 07:13:39;;;;;;;37.48;24.00;;;;;;;7.93;97.83;99527.09;4040541;87;21082;-82
2021/09/29 07:19:40;;;;;;;37.95;23.67;;;;;;;8.06;97.84;99527.86;4029707;87;21032;-82
2021/09/29 07:25:41;;;;;;;36.60;24.05;;;;;;;8.13;97.59;99536.26;4040781;86;21077;-82
2021/09/29 07:31:42;;;;;;;36.13;24.87;;;;;;;8.21;97.64;99537.46;4043439;86;21053;-81
2021/09/29 07:37:44;;;;;;;37.00;24.52;;;;;;;8.33;97.82;99546.22;4044012;86;21144;-82
2021/09/29 07:43:46;;;;;;;49.50;24.27;;;;;;;8.45;97.78;99548.33;4046474;86;21630;-81
2021/09/29 07:49:49;;;;;;;42.95;23.75;;;;;;;8.55;97.57;99551.91;4062098;86;21638;-82
2021/09/29 07:55:56;;;;;;;38.78;24.15;;;;;;;8.63;97.49;99550.97;4025148;86;21778;-82
2021/09/29 08:01:58;;;;;;;38.55;22.87;;;;;;;8.73;97.55;99543.65;4061262;86;21079;-84
2021/09/29 08:08:02;;;;;;;37.65;23.27;;;;;;;8.79;97.48;99540.88;4041394;86;21061;-82
2021/09/29 08:14:03;;;;;;;37.40;23.45;;;;;;;8.95;97.66;99541.70;4052928;86;21067;-82
2021/09/29 08:20:07;;;;;;;34.15;23.05;;;;;;;9.08;97.47;99543.78;4026807;86;21079;-82
2021/09/29 08:32:28;;;;;;;40.08;26.00;;;;;;;9.26;97.39;99537.62;4054497;86;21074;-81
2021/09/29 08:38:36;;;;;;;40.10;24.80;;;;;;;9.30;97.30;99533.02;4074022;85;21559;-82
2021/09/29 09:16:15;;;;;;;38.28;23.20;;;;;;;10.01;97.05;99537.39;4011736;87;21091;-82
2021/09/29 09:22:14;;;;;;;37.10;23.92;;;;;;;10.12;97.07;99535.70;4003767;88;21055;-82
2021/09/29 09:28:28;;;;;;;40.00;24.25;;;;;;;10.14;96.80;99536.95;4008438;88;21630;-82
2021/09/29 09:34:30;;;;;;;34.20;23.67;;;;;;;10.35;96.84;99528.39;4013648;88;21544;-82
2021/09/29 09:40:37;;;;;;;42.10;25.20;;;;;;;10.44;96.66;99527.59;4008741;88;21147;-82
2021/09/29 09:46:38;;;;;;;38.20;23.50;;;;;;;10.56;96.42;99530.97;4050361;86;21124;-83
2021/09/29 09:52:44;;;;;;;36.80;22.82;;;;;;;10.76;96.65;99531.16;4136140;85;21133;-82
2021/09/29 09:58:56;;;;;;;33.13;22.67;;;;;;;11.01;96.42;99528.86;4133550;85;21109;-82
2021/09/29 10:04:58;;;;;;;34.10;22.25;;;;;;;11.21;96.11;99526.30;4138997;85;21659;-82
2021/09/29 10:11:11;;;;;;;30.65;22.17;;;;;;;11.58;95.81;99512.20;4137597;86;21088;-82
2021/09/29 10:30:06;;;;;;;28.90;20.20;;;;;;;13.59;94.36;99494.08;4137821;85;21072;-83
2021/09/29 10:42:21;;;;;;;29.23;20.30;;;;;;;14.79;92.88;99496.05;4107852;86;21070;-83
2021/09/29 11:32:47;;;;;;;33.28;19.60;;;;;;;15.97;84.98;99458.59;4110579;86;21102;-84
2021/09/29 12:10:20;;;;;;;26.37;16.75;;;;;;;15.45;83.39;99423.62;4140327;86;21626;-84
2021/09/29 12:16:36;;;;;;;30.32;19.77;;;;;;;15.48;83.69;99416.72;4137698;85;21129;-84
2021/09/29 12:22:54;;;;;;;29.65;19.70;;;;;;;15.49;82.65;99423.01;4137434;86;21157;-84
2021/09/29 12:29:08;;;;;;;24.87;17.67;;;;;;;15.36;82.97;99423.98;4137946;85;21096;-84
2021/09/29 12:35:21;;;;;;;32.77;17.97;;;;;;;15.34;82.78;99429.70;4131830;85;21156;-85
2021/09/29 12:41:19;;;;;;;25.92;18.80;;;;;;;15.33;82.50;99434.42;4133575;86;21080;-84
2021/09/29 12:47:46;;;;;;;;;;;;;;;;;;;;;
2021/09/29 12:53:46;;;;;;;22.02;16.27;;;;;;;15.32;82.39;99419.07;4032904;87;21055;-83
2021/09/29 12:59:41;;;;;;;23.12;16.27;;;;;;;15.29;82.38;99418.48;4039808;86;22253;-84
2021/09/29 13:05:43;;;;;;;25.45;15.53;;;;;;;15.31;82.40;99416.13;4022251;87;21607;-84
2021/09/29 13:11:44;;;;;;;26.27;15.75;;;;;;;15.28;82.54;99423.02;4041089;87;21059;-84
2021/09/29 13:17:50;;;;;;;28.92;15.45;;;;;;;15.27;82.39;99426.36;4036880;87;21522;-85
2021/09/29 13:23:56;;;;;;;22.07;14.47;;;;;;;15.23;82.63;99421.45;4028869;86;21523;-84
2021/09/29 13:42:37;;;;;;;22.55;15.60;;;;;;;15.42;82.94;99407.28;4046996;86;21105;-84
2021/09/29 13:48:38;;;;;;;25.55;16.85;;;;;;;15.48;83.10;99415.34;4043649;86;21551;-84
2021/09/29 13:54:41;;;;;;;27.80;16.73;;;;;;;15.60;83.10;99408.59;4029916;87;21095;-84
2021/09/29 14:32:42;;;;;;;25.72;15.40;;;;;;;15.80;83.66;99382.72;4120580;83;21546;-84
2021/09/29 14:38:38;;;;;;;20.90;14.55;;;;;;;15.81;83.94;99394.75;4129468;85;21115;-84
2021/09/29 14:44:40;;;;;;;23.02;14.95;;;;;;;15.81;83.94;99395.33;4038948;86;21539;-84
2021/09/29 14:50:45;;;;;;;22.95;14.80;;;;;;;15.75;84.33;99389.45;4035184;87;21086;-84
2021/09/29 14:56:47;;;;;;;22.62;14.03;;;;;;;15.71;84.44;99392.80;4051104;87;21128;-84
2021/09/29 15:02:49;;;;;;;22.13;14.20;;;;;;;15.61;84.72;99386.13;4039761;86;21130;-84
2021/09/29 15:08:50;;;;;;;20.35;13.70;;;;;;;15.54;84.71;99384.77;4065052;86;21069;-84
2021/09/29 15:15:45;;;;;;;;;;;;;;;;;;;;;
2021/09/29 15:27:32;;;;;;;31.55;17.05;;;;;;;15.23;85.51;99391.70;4046331;87;21140;-83
2021/09/29 15:53:03;;;;;;;25.50;15.70;;;;;;;15.07;86.67;99395.45;4148016;84;21063;-83
2021/09/29 15:58:49;;;;;;;28.05;17.95;;;;;;;14.92;86.80;99393.89;4099473;84;21580;-84
2021/09/29 16:17:09;;;;;;;38.02;23.75;;;;;;;14.79;87.67;99389.94;4162555;85;21040;-83
2021/09/29 16:30:03;;;;;;;36.03;22.32;;;;;;;14.62;87.62;99395.64;4160659;84;21138;-83
2021/09/29 16:41:22;;;;;;;35.78;23.55;;;;;;;14.46;88.05;99381.45;4161282;84;21598;-83
2021/09/29 16:47:23;;;;;;;42.27;24.90;;;;;;;14.41;88.45;99391.47;4155653;84;21164;-83
2021/09/29 16:53:28;;;;;;;39.18;23.83;;;;;;;14.39;88.72;99393.84;4040756;87;21097;-83
2021/09/29 17:05:34;;;;;;;42.17;25.97;;;;;;;14.20;89.07;99393.55;3978081;87;21079;-83
2021/09/29 17:11:36;;;;;;;49.18;30.77;;;;;;;14.11;89.33;99398.64;4052555;87;21081;-83
2021/09/29 17:17:41;;;;;;;42.75;27.37;;;;;;;13.91;89.56;99395.21;4036055;86;21157;-83
2021/09/29 17:23:44;;;;;;;47.15;28.10;;;;;;;13.84;89.58;99398.72;4025056;86;21090;-83
2021/09/29 17:29:47;;;;;;;48.28;27.77;;;;;;;13.69;89.90;99403.97;4052840;87;21360;-84
2021/09/29 17:54:28;;;;;;;41.07;27.93;;;;;;;13.44;91.26;99426.41;4038471;86;21161;-83
2021/09/29 18:00:32;;;;;;;49.98;31.48;;;;;;;13.47;91.29;99428.97;4045873;86;21133;-84
2021/09/29 18:12:59;;;;;;;45.17;30.00;;;;;;;13.47;91.98;99435.84;4026858;87;21585;-83
2021/09/29 18:19:00;;;;;;;40.78;28.25;;;;;;;13.47;92.18;99441.34;4039697;86;21083;-84
2021/09/29 18:25:01;;;;;;;46.68;29.35;;;;;;;13.39;92.09;99436.39;4040987;86;21059;-83
2021/09/29 18:31:02;;;;;;;45.20;30.00;;;;;;;13.38;92.81;99438.95;4041279;86;21066;-84
2021/09/29 18:37:07;;;;;;;48.83;30.23;;;;;;;13.44;93.08;99442.12;4041081;87;21079;-83
2021/09/29 18:43:11;;;;;;;46.28;28.83;;;;;;;13.38;93.16;99449.95;4033226;86;21118;-84
2021/09/29 18:49:16;;;;;;;53.00;32.40;;;;;;;13.36;93.33;99446.78;4039702;86;21088;-84
2021/09/29 18:55:34;;;;;;;50.30;32.28;;;;;;;13.32;93.56;99452.06;4110223;85;21090;-83
2021/09/29 19:08:10;;;;;;;50.12;33.30;;;;;;;13.24;93.94;99447.09;4111317;85;21874;-84
2021/09/29 19:14:10;;;;;;;62.33;36.83;;;;;;;13.28;94.29;99447.13;4165098;84;21080;-83
2021/09/29 19:20:13;;;;;;;53.33;32.28;;;;;;;13.24;94.34;99457.30;4161389;83;21583;-83
2021/09/29 19:26:17;;;;;;;53.28;34.18;;;;;;;13.28;94.44;99462.25;4159127;83;21065;-83
2021/09/29 19:32:19;;;;;;;58.10;34.05;;;;;;;13.26;94.59;99473.63;4141043;85;21109;-83
2021/09/29 19:38:23;;;;;;;57.30;36.20;;;;;;;13.15;94.42;99482.95;4150889;85;21077;-83
2021/09/29 19:44:28;;;;;;;72.40;38.55;;;;;;;13.15;94.77;99493.95;4163326;84;21149;-84
2021/09/29 20:07:26;;;;;;;85.35;49.08;;;;;;;13.09;94.89;99487.22;4165578;83;21044;-84
2021/09/29 20:09:07;;;;;;;77.82;48.05;;;;;;;13.02;95.30;99483.82;4153392;84;21121;-83
2021/09/29 20:15:15;;;;;;;81.12;46.13;;;;;;;12.99;95.18;99487.30;4145808;84;21083;-83
2021/09/29 20:21:16;;;;;;;72.92;45.88;;;;;;;12.91;95.36;99490.34;4162336;84;21116;-82
2021/09/29 20:27:17;;;;;;;68.75;43.25;;;;;;;12.91;95.56;99508.20;4139247;84;21062;-83
2021/09/29 20:34:10;;;;;;;74.22;45.67;;;;;;;12.89;95.35;99509.95;4153929;85;22241;-83
2021/09/29 20:52:54;;;;;;;73.85;43.28;;;;;;;12.79;95.72;99519.47;4119235;85;21082;-84
2021/09/29 20:58:56;;;;;;;67.50;41.42;;;;;;;12.68;95.90;99521.31;4113403;85;21095;-83
2021/09/29 21:04:59;;;;;;;60.43;40.17;;;;;;;12.65;96.12;99530.50;4143414;85;21605;-84
2021/09/29 21:11:13;;;;;;;67.35;42.53;;;;;;;12.67;96.20;99530.73;4162323;84;21064;-83
2021/09/29 21:24:53;;;;;;;67.90;40.20;;;;;;;12.64;96.31;99546.79;4022640;88;21107;-83
2021/09/29 21:30:56;;;;;;;61.08;35.50;;;;;;;12.63;96.82;99546.59;3968082;88;21659;-83
2021/09/29 21:36:59;;;;;;;66.75;39.25;;;;;;;12.68;96.95;99546.84;3962238;87;21128;-84
2021/09/29 23:01:00;;;;;;;69.80;44.75;;;;;;;12.70;99.35;99581.56;3978074;87;21181;-83
2021/09/29 23:06:22;;;;;;;71.70;44.53;;;;;;;12.73;99.44;99593.78;4042547;85;21074;-83
2021/09/29 23:37:46;;;;;;;64.65;42.83;;;;;;;12.77;100.00;99596.77;4053462;87;21046;-83
2021/09/29 23:43:49;;;;;;;68.40;41.40;;;;;;;12.76;100.00;99601.27;4136090;83;21086;-83
2021/09/29 23:49:50;;;;;;;66.82;42.55;;;;;;;12.77;100.00;99598.72;4146078;83;21069;-84
2021/09/29 23:55:53;;;;;;;69.10;42.35;;;;;;;12.79;100.00;99606.02;4148173;83;21545;-84
